sensor_id;sensor_type;location;lat;lon;timestamp;P1;durP1;ratioP1;P2;durP2;ratioP2
22270;SDS011;11304;53.520;10.104;2023-03-22T00:00:51;16.60;;;11.70;;
22270;SDS011;11304;53.520;10.104;2023-03-22T00:03:17;15.13;;;11.43;;
22270;SDS011;11304;53.520;10.104;2023-03-22T00:05:44;12.60;;;10.40;;
22270;SDS011;11304;53.520;10.104;2023-03-22T00:08:10;17.10;;;11.40;;
22270;SDS011;11304;53.520;10.104;2023-03-22T00:10:38;15.82;;;11.23;;
22270;SDS011;11304;53.520;10.104;2023-03-22T00:13:05;18.77;;;12.40;;
22270;SDS011;11304;53.520;10.104;2023-03-22T00:15:31;16.52;;;11.73;;
22270;SDS011;11304;53.520;10.104;2023-03-22T00:17:58;15.32;;;11.82;;
22270;SDS011;11304;53.520;10.104;2023-03-22T00:20:24;14.73;;;11.45;;
22270;SDS011;11304;53.520;10.104;2023-03-22T00:22:54;17.60;;;12.10;;
22270;SDS011;11304;53.520;10.104;2023-03-22T00:25:20;16.08;;;11.88;;
22270;SDS011;11304;53.520;10.104;2023-03-22T00:27:46;21.95;;;12.15;;
22270;SDS011;11304;53.520;10.104;2023-03-22T00:30:13;15.30;;;11.10;;
22270;SDS011;11304;53.520;10.104;2023-03-22T00:32:39;17.90;;;11.65;;
22270;SDS011;11304;53.520;10.104;2023-03-22T00:37:34;18.17;;;12.35;;
22270;SDS011;11304;53.520;10.104;2023-03-22T00:40:05;9.97;;;8.37;;
22270;SDS011;11304;53.520;10.104;2023-03-22T00:42:38;18.42;;;12.93;;
22270;SDS011;11304;53.520;10.104;2023-03-22T00:45:04;18.67;;;13.45;;
22270;SDS011;11304;53.520;10.104;2023-03-22T00:47:31;18.60;;;12.82;;
22270;SDS011;11304;53.520;10.104;2023-03-22T00:49:57;17.30;;;13.02;;
22270;SDS011;11304;53.520;10.104;2023-03-22T00:52:23;17.17;;;12.77;;
22270;SDS011;11304;53.520;10.104;2023-03-22T00:54:49;20.83;;;14.50;;
22270;SDS011;11304;53.520;10.104;2023-03-22T00:57:15;18.45;;;13.85;;
22270;SDS011;11304;53.520;10.104;2023-03-22T00:59:42;18.52;;;13.52;;
22270;SDS011;11304;53.520;10.104;2023-03-22T01:02:08;17.25;;;14.15;;
22270;SDS011;11304;53.520;10.104;2023-03-22T01:04:37;22.75;;;14.93;;
22270;SDS011;11304;53.520;10.104;2023-03-22T01:07:04;19.23;;;14.23;;
22270;SDS011;11304;53.520;10.104;2023-03-22T01:09:32;20.88;;;15.63;;
22270;SDS011;11304;53.520;10.104;2023-03-22T01:11:59;17.95;;;14.80;;
22270;SDS011;11304;53.520;10.104;2023-03-22T01:14:26;19.73;;;14.27;;
22270;SDS011;11304;53.520;10.104;2023-03-22T01:16:53;19.33;;;15.10;;
22270;SDS011;11304;53.520;10.104;2023-03-22T01:19:21;18.77;;;14.63;;
22270;SDS011;11304;53.520;10.104;2023-03-22T01:21:47;21.83;;;14.45;;
22270;SDS011;11304;53.520;10.104;2023-03-22T01:24:13;20.80;;;15.90;;
22270;SDS011;11304;53.520;10.104;2023-03-22T01:26:39;22.67;;;15.43;;
22270;SDS011;11304;53.520;10.104;2023-03-22T01:29:05;18.67;;;14.98;;
22270;SDS011;11304;53.520;10.104;2023-03-22T01:31:31;21.70;;;15.25;;
22270;SDS011;11304;53.520;10.104;2023-03-22T01:33:57;18.50;;;14.93;;
22270;SDS011;11304;53.520;10.104;2023-03-22T01:36:23;19.17;;;15.27;;
22270;SDS011;11304;53.520;10.104;2023-03-22T01:38:50;18.17;;;14.68;;
22270;SDS011;11304;53.520;10.104;2023-03-22T01:41:16;19.52;;;14.80;;
22270;SDS011;11304;53.520;10.104;2023-03-22T01:43:42;22.45;;;16.42;;
22270;SDS011;11304;53.520;10.104;2023-03-22T01:46:08;21.13;;;15.15;;
22270;SDS011;11304;53.520;10.104;2023-03-22T01:48:36;22.60;;;15.63;;
22270;SDS011;11304;53.520;10.104;2023-03-22T01:53:34;22.88;;;15.57;;
22270;SDS011;11304;53.520;10.104;2023-03-22T01:58:27;24.02;;;15.63;;
22270;SDS011;11304;53.520;10.104;2023-03-22T02:00:53;29.45;;;16.00;;
22270;SDS011;11304;53.520;10.104;2023-03-22T02:03:36;17.88;;;14.60;;
22270;SDS011;11304;53.520;10.104;2023-03-22T02:06:05;20.85;;;15.45;;
22270;SDS011;11304;53.520;10.104;2023-03-22T02:08:31;20.98;;;16.17;;
22270;SDS011;11304;53.520;10.104;2023-03-22T02:10:58;21.50;;;15.05;;
22270;SDS011;11304;53.520;10.104;2023-03-22T02:13:28;20.88;;;15.40;;
22270;SDS011;11304;53.520;10.104;2023-03-22T02:24:11;19.20;;;15.05;;
22270;SDS011;11304;53.520;10.104;2023-03-22T02:26:49;22.33;;;14.63;;
22270;SDS011;11304;53.520;10.104;2023-03-22T02:42:20;21.50;;;14.43;;
22270;SDS011;11304;53.520;10.104;2023-03-22T02:47:19;18.25;;;13.98;;
22270;SDS011;11304;53.520;10.104;2023-03-22T02:52:47;18.92;;;14.50;;
22270;SDS011;11304;53.520;10.104;2023-03-22T02:55:36;16.55;;;13.60;;
22270;SDS011;11304;53.520;10.104;2023-03-22T03:00:36;20.95;;;14.30;;
22270;SDS011;11304;53.520;10.104;2023-03-22T03:03:05;24.95;;;13.73;;
22270;SDS011;11304;53.520;10.104;2023-03-22T03:05:36;19.08;;;14.18;;
22270;SDS011;11304;53.520;10.104;2023-03-22T03:10:30;20.58;;;14.45;;
22270;SDS011;11304;53.520;10.104;2023-03-22T03:12:57;16.80;;;13.27;;
22270;SDS011;11304;53.520;10.104;2023-03-22T03:15:23;20.55;;;13.82;;
22270;SDS011;11304;53.520;10.104;2023-03-22T03:17:56;18.63;;;14.38;;
22270;SDS011;11304;53.520;10.104;2023-03-22T03:25:25;19.95;;;13.85;;
22270;SDS011;11304;53.520;10.104;2023-03-22T03:30:26;20.90;;;13.52;;
22270;SDS011;11304;53.520;10.104;2023-03-22T03:32:57;17.50;;;12.82;;
22270;SDS011;11304;53.520;10.104;2023-03-22T03:35:26;19.80;;;12.98;;
22270;SDS011;11304;53.520;10.104;2023-03-22T03:37:53;17.20;;;13.38;;
22270;SDS011;11304;53.520;10.104;2023-03-22T03:40:22;19.02;;;13.52;;
22270;SDS011;11304;53.520;10.104;2023-03-22T03:42:51;27.00;;;13.10;;
22270;SDS011;11304;53.520;10.104;2023-03-22T03:45:17;20.20;;;13.55;;
22270;SDS011;11304;53.520;10.104;2023-03-22T03:47:46;18.55;;;12.57;;
22270;SDS011;11304;53.520;10.104;2023-03-22T03:50:19;20.83;;;13.65;;
22270;SDS011;11304;53.520;10.104;2023-03-22T03:52:46;24.17;;;14.65;;
22270;SDS011;11304;53.520;10.104;2023-03-22T03:55:12;16.33;;;13.07;;
22270;SDS011;11304;53.520;10.104;2023-03-22T03:57:38;16.55;;;12.93;;
22270;SDS011;11304;53.520;10.104;2023-03-22T04:00:04;16.38;;;13.20;;
22270;SDS011;11304;53.520;10.104;2023-03-22T04:02:30;17.05;;;12.55;;
22270;SDS011;11304;53.520;10.104;2023-03-22T04:04:57;19.42;;;13.20;;
22270;SDS011;11304;53.520;10.104;2023-03-22T04:07:23;18.73;;;12.55;;
22270;SDS011;11304;53.520;10.104;2023-03-22T04:09:49;19.85;;;12.40;;
22270;SDS011;11304;53.520;10.104;2023-03-22T04:12:15;18.88;;;12.93;;
22270;SDS011;11304;53.520;10.104;2023-03-22T04:14:41;19.50;;;12.68;;
22270;SDS011;11304;53.520;10.104;2023-03-22T04:17:08;18.27;;;12.32;;
22270;SDS011;11304;53.520;10.104;2023-03-22T04:19:35;18.80;;;12.35;;
22270;SDS011;11304;53.520;10.104;2023-03-22T04:22:01;16.15;;;12.40;;
22270;SDS011;11304;53.520;10.104;2023-03-22T04:24:27;17.20;;;12.43;;
22270;SDS011;11304;53.520;10.104;2023-03-22T04:26:53;15.23;;;11.45;;
22270;SDS011;11304;53.520;10.104;2023-03-22T04:29:19;14.20;;;11.10;;
22270;SDS011;11304;53.520;10.104;2023-03-22T04:31:46;16.42;;;11.45;;
22270;SDS011;11304;53.520;10.104;2023-03-22T04:34:13;17.65;;;11.13;;
22270;SDS011;11304;53.520;10.104;2023-03-22T04:36:39;12.90;;;10.32;;
22270;SDS011;11304;53.520;10.104;2023-03-22T04:39:09;13.02;;;10.10;;
22270;SDS011;11304;53.520;10.104;2023-03-22T04:41:35;15.00;;;10.32;;
22270;SDS011;11304;53.520;10.104;2023-03-22T04:44:02;15.27;;;10.50;;
22270;SDS011;11304;53.520;10.104;2023-03-22T04:46:29;16.20;;;10.20;;
22270;SDS011;11304;53.520;10.104;2023-03-22T04:48:55;16.10;;;10.02;;
22270;SDS011;11304;53.520;10.104;2023-03-22T04:51:21;15.60;;;10.90;;
22270;SDS011;11304;53.520;10.104;2023-03-22T04:53:47;15.65;;;10.68;;
22270;SDS011;11304;53.520;10.104;2023-03-22T04:56:13;17.13;;;10.30;;
22270;SDS011;11304;53.520;10.104;2023-03-22T04:58:40;13.90;;;10.07;;
22270;SDS011;11304;53.520;10.104;2023-03-22T05:01:10;15.95;;;10.27;;
22270;SDS011;11304;53.520;10.104;2023-03-22T05:03:37;17.05;;;11.23;;
22270;SDS011;11304;53.520;10.104;2023-03-22T05:06:04;14.73;;;10.40;;
22270;SDS011;11304;53.520;10.104;2023-03-22T05:08:31;15.10;;;9.60;;
22270;SDS011;11304;53.520;10.104;2023-03-22T05:10:58;15.52;;;10.02;;
22270;SDS011;11304;53.520;10.104;2023-03-22T05:13:25;16.02;;;10.50;;
22270;SDS011;11304;53.520;10.104;2023-03-22T05:15:51;14.02;;;10.23;;
22270;SDS011;11304;53.520;10.104;2023-03-22T05:18:18;15.35;;;9.95;;
22270;SDS011;11304;53.520;10.104;2023-03-22T05:20:45;15.32;;;10.18;;
22270;SDS011;11304;53.520;10.104;2023-03-22T05:23:12;15.50;;;10.30;;
22270;SDS011;11304;53.520;10.104;2023-03-22T05:25:38;15.82;;;9.68;;
22270;SDS011;11304;53.520;10.104;2023-03-22T05:28:09;13.10;;;9.55;;
22270;SDS011;11304;53.520;10.104;2023-03-22T05:30:35;18.65;;;9.68;;
22270;SDS011;11304;53.520;10.104;2023-03-22T05:33:03;14.25;;;10.02;;
22270;SDS011;11304;53.520;10.104;2023-03-22T05:37:56;15.77;;;9.73;;
22270;SDS011;11304;53.520;10.104;2023-03-22T05:40:22;14.63;;;9.10;;
22270;SDS011;11304;53.520;10.104;2023-03-22T05:42:48;13.65;;;9.63;;
22270;SDS011;11304;53.520;10.104;2023-03-22T05:45:15;20.98;;;9.70;;
22270;SDS011;11304;53.520;10.104;2023-03-22T05:47:41;14.82;;;9.27;;
22270;SDS011;11304;53.520;10.104;2023-03-22T05:50:08;16.27;;;10.00;;
22270;SDS011;11304;53.520;10.104;2023-03-22T05:52:34;15.35;;;8.80;;
22270;SDS011;11304;53.520;10.104;2023-03-22T05:55:00;18.48;;;8.70;;
22270;SDS011;11304;53.520;10.104;2023-03-22T05:57:26;14.68;;;9.02;;
22270;SDS011;11304;53.520;10.104;2023-03-22T05:59:54;13.55;;;8.82;;
22270;SDS011;11304;53.520;10.104;2023-03-22T06:02:20;13.80;;;8.43;;
22270;SDS011;11304;53.520;10.104;2023-03-22T06:04:46;12.52;;;8.45;;
22270;SDS011;11304;53.520;10.104;2023-03-22T06:07:13;14.85;;;8.63;;
22270;SDS011;11304;53.520;10.104;2023-03-22T06:09:39;16.83;;;9.20;;
22270;SDS011;11304;53.520;10.104;2023-03-22T06:12:06;10.48;;;7.78;;
22270;SDS011;11304;53.520;10.104;2023-03-22T06:14:32;17.60;;;8.15;;
22270;SDS011;11304;53.520;10.104;2023-03-22T06:16:58;15.30;;;8.52;;
22270;SDS011;11304;53.520;10.104;2023-03-22T06:19:24;14.20;;;8.18;;
22270;SDS011;11304;53.520;10.104;2023-03-22T06:21:52;11.75;;;7.78;;
22270;SDS011;11304;53.520;10.104;2023-03-22T06:24:18;14.27;;;8.05;;
22270;SDS011;11304;53.520;10.104;2023-03-22T06:26:44;11.18;;;8.10;;
22270;SDS011;11304;53.520;10.104;2023-03-22T06:29:10;13.63;;;8.73;;
22270;SDS011;11304;53.520;10.104;2023-03-22T06:31:37;11.32;;;8.05;;
22270;SDS011;11304;53.520;10.104;2023-03-22T06:34:03;12.48;;;7.95;;
22270;SDS011;11304;53.520;10.104;2023-03-22T06:36:29;13.18;;;8.25;;
22270;SDS011;11304;53.520;10.104;2023-03-22T06:38:56;14.52;;;9.32;;
22270;SDS011;11304;53.520;10.104;2023-03-22T06:41:23;15.63;;;10.10;;
22270;SDS011;11304;53.520;10.104;2023-03-22T06:43:49;14.85;;;8.65;;
22270;SDS011;11304;53.520;10.104;2023-03-22T06:46:15;13.25;;;8.32;;
22270;SDS011;11304;53.520;10.104;2023-03-22T06:48:41;14.20;;;8.02;;
22270;SDS011;11304;53.520;10.104;2023-03-22T06:51:07;10.85;;;7.32;;
22270;SDS011;11304;53.520;10.104;2023-03-22T06:53:33;19.05;;;7.95;;
22270;SDS011;11304;53.520;10.104;2023-03-22T06:56:00;12.75;;;7.82;;
22270;SDS011;11304;53.520;10.104;2023-03-22T06:58:26;9.15;;;7.18;;
22270;SDS011;11304;53.520;10.104;2023-03-22T07:00:53;12.77;;;7.20;;
22270;SDS011;11304;53.520;10.104;2023-03-22T07:03:19;12.25;;;7.22;;
22270;SDS011;11304;53.520;10.104;2023-03-22T07:05:46;11.88;;;7.32;;
22270;SDS011;11304;53.520;10.104;2023-03-22T07:08:12;11.32;;;7.57;;
22270;SDS011;11304;53.520;10.104;2023-03-22T07:10:38;12.95;;;7.47;;
22270;SDS011;11304;53.520;10.104;2023-03-22T07:13:04;11.02;;;7.13;;
22270;SDS011;11304;53.520;10.104;2023-03-22T07:15:30;11.15;;;7.65;;
22270;SDS011;11304;53.520;10.104;2023-03-22T07:17:58;11.57;;;7.57;;
22270;SDS011;11304;53.520;10.104;2023-03-22T07:20:24;13.75;;;7.93;;
22270;SDS011;11304;53.520;10.104;2023-03-22T07:22:51;9.25;;;7.28;;
22270;SDS011;11304;53.520;10.104;2023-03-22T07:25:17;17.08;;;8.30;;
22270;SDS011;11304;53.520;10.104;2023-03-22T07:27:43;11.57;;;7.35;;
22270;SDS011;11304;53.520;10.104;2023-03-22T07:30:09;13.68;;;7.53;;
22270;SDS011;11304;53.520;10.104;2023-03-22T07:32:38;18.45;;;8.20;;
22270;SDS011;11304;53.520;10.104;2023-03-22T07:35:05;12.40;;;8.13;;
22270;SDS011;11304;53.520;10.104;2023-03-22T07:37:31;11.38;;;8.40;;
22270;SDS011;11304;53.520;10.104;2023-03-22T07:39:57;12.10;;;8.38;;
22270;SDS011;11304;53.520;10.104;2023-03-22T07:42:23;15.50;;;8.43;;
22270;SDS011;11304;53.520;10.104;2023-03-22T07:44:49;11.18;;;8.07;;
22270;SDS011;11304;53.520;10.104;2023-03-22T07:47:15;11.93;;;8.50;;
22270;SDS011;11304;53.520;10.104;2023-03-22T07:49:41;11.82;;;8.98;;
22270;SDS011;11304;53.520;10.104;2023-03-22T07:52:07;13.68;;;9.02;;
22270;SDS011;11304;53.520;10.104;2023-03-22T07:54:34;14.82;;;9.30;;
22270;SDS011;11304;53.520;10.104;2023-03-22T07:57:00;15.00;;;9.98;;
22270;SDS011;11304;53.520;10.104;2023-03-22T07:59:27;14.57;;;9.45;;
22270;SDS011;11304;53.520;10.104;2023-03-22T08:01:53;14.88;;;9.40;;
22270;SDS011;11304;53.520;10.104;2023-03-22T08:04:19;15.73;;;9.40;;
22270;SDS011;11304;53.520;10.104;2023-03-22T08:06:46;14.15;;;9.05;;
22270;SDS011;11304;53.520;10.104;2023-03-22T08:09:13;17.65;;;10.52;;
22270;SDS011;11304;53.520;10.104;2023-03-22T08:11:39;15.38;;;10.27;;
22270;SDS011;11304;53.520;10.104;2023-03-22T08:14:05;14.75;;;9.88;;
22270;SDS011;11304;53.520;10.104;2023-03-22T08:16:33;13.38;;;10.57;;
22270;SDS011;11304;53.520;10.104;2023-03-22T08:18:59;14.55;;;11.07;;
22270;SDS011;11304;53.520;10.104;2023-03-22T08:21:25;13.98;;;11.38;;
22270;SDS011;11304;53.520;10.104;2023-03-22T08:23:51;16.90;;;11.05;;
22270;SDS011;11304;53.520;10.104;2023-03-22T08:26:17;15.35;;;10.60;;
22270;SDS011;11304;53.520;10.104;2023-03-22T08:28:44;15.02;;;10.82;;
22270;SDS011;11304;53.520;10.104;2023-03-22T08:31:11;14.77;;;11.13;;
22270;SDS011;11304;53.520;10.104;2023-03-22T08:33:37;14.20;;;11.23;;
22270;SDS011;11304;53.520;10.104;2023-03-22T08:36:04;14.52;;;10.82;;
22270;SDS011;11304;53.520;10.104;2023-03-22T08:38:30;14.27;;;11.32;;
22270;SDS011;11304;53.520;10.104;2023-03-22T08:40:56;18.58;;;13.18;;
22270;SDS011;11304;53.520;10.104;2023-03-22T08:43:22;13.98;;;11.07;;
22270;SDS011;11304;53.520;10.104;2023-03-22T08:45:49;19.10;;;11.35;;
22270;SDS011;11304;53.520;10.104;2023-03-22T08:48:15;16.23;;;11.15;;
22270;SDS011;11304;53.520;10.104;2023-03-22T08:50:41;13.18;;;9.60;;
22270;SDS011;11304;53.520;10.104;2023-03-22T08:53:07;13.93;;;10.35;;
22270;SDS011;11304;53.520;10.104;2023-03-22T08:55:35;13.80;;;10.43;;
22270;SDS011;11304;53.520;10.104;2023-03-22T08:58:01;15.15;;;10.02;;
22270;SDS011;11304;53.520;10.104;2023-03-22T09:02:53;13.35;;;9.13;;
22270;SDS011;11304;53.520;10.104;2023-03-22T09:05:19;13.13;;;9.18;;
22270;SDS011;11304;53.520;10.104;2023-03-22T09:07:45;14.85;;;8.75;;
22270;SDS011;11304;53.520;10.104;2023-03-22T09:10:11;11.05;;;8.73;;
22270;SDS011;11304;53.520;10.104;2023-03-22T09:12:37;12.02;;;7.55;;
22270;SDS011;11304;53.520;10.104;2023-03-22T09:15:04;10.68;;;7.50;;
22270;SDS011;11304;53.520;10.104;2023-03-22T09:17:31;12.70;;;7.25;;
22270;SDS011;11304;53.520;10.104;2023-03-22T09:19:57;11.68;;;7.50;;
22270;SDS011;11304;53.520;10.104;2023-03-22T09:22:23;14.20;;;8.18;;
22270;SDS011;11304;53.520;10.104;2023-03-22T09:24:49;11.27;;;6.90;;
22270;SDS011;11304;53.520;10.104;2023-03-22T09:27:15;12.10;;;7.28;;
22270;SDS011;11304;53.520;10.104;2023-03-22T09:29:41;11.65;;;6.75;;
22270;SDS011;11304;53.520;10.104;2023-03-22T09:32:07;9.50;;;6.40;;
22270;SDS011;11304;53.520;10.104;2023-03-22T09:34:33;14.93;;;6.68;;
22270;SDS011;11304;53.520;10.104;2023-03-22T09:36:59;10.32;;;6.60;;
22270;SDS011;11304;53.520;10.104;2023-03-22T09:39:27;9.02;;;5.28;;
22270;SDS011;11304;53.520;10.104;2023-03-22T09:41:54;12.00;;;5.18;;
22270;SDS011;11304;53.520;10.104;2023-03-22T09:46:52;13.48;;;5.88;;
22270;SDS011;11304;53.520;10.104;2023-03-22T09:49:19;9.75;;;5.47;;
22270;SDS011;11304;53.520;10.104;2023-03-22T09:51:47;9.38;;;4.78;;
22270;SDS011;11304;53.520;10.104;2023-03-22T09:54:18;9.25;;;4.55;;
22270;SDS011;11304;53.520;10.104;2023-03-22T09:56:49;10.02;;;4.07;;
22270;SDS011;11304;53.520;10.104;2023-03-22T10:02:14;9.15;;;4.88;;
22270;SDS011;11304;53.520;10.104;2023-03-22T10:12:28;7.95;;;4.05;;
22270;SDS011;11304;53.520;10.104;2023-03-22T10:17:51;10.68;;;4.05;;
22270;SDS011;11304;53.520;10.104;2023-03-22T10:20:29;8.48;;;3.53;;
22270;SDS011;11304;53.520;10.104;2023-03-22T10:22:56;8.70;;;3.40;;
22270;SDS011;11304;53.520;10.104;2023-03-22T10:25:30;11.90;;;4.07;;
22270;SDS011;11304;53.520;10.104;2023-03-22T10:27:57;9.85;;;3.90;;
22270;SDS011;11304;53.520;10.104;2023-03-22T10:30:25;8.07;;;3.55;;
22270;SDS011;11304;53.520;10.104;2023-03-22T10:32:54;10.55;;;3.75;;
22270;SDS011;11304;53.520;10.104;2023-03-22T10:35:21;10.15;;;3.42;;
22270;SDS011;11304;53.520;10.104;2023-03-22T10:37:48;6.80;;;3.40;;
22270;SDS011;11304;53.520;10.104;2023-03-22T10:40:16;7.47;;;3.63;;
22270;SDS011;11304;53.520;10.104;2023-03-22T10:42:44;10.02;;;3.85;;
22270;SDS011;11304;53.520;10.104;2023-03-22T10:45:15;10.65;;;3.75;;
22270;SDS011;11304;53.520;10.104;2023-03-22T10:47:48;8.13;;;3.08;;
22270;SDS011;11304;53.520;10.104;2023-03-22T10:50:17;9.85;;;3.13;;
22270;SDS011;11304;53.520;10.104;2023-03-22T10:55:11;9.50;;;3.05;;
22270;SDS011;11304;53.520;10.104;2023-03-22T10:57:38;9.20;;;3.05;;
22270;SDS011;11304;53.520;10.104;2023-03-22T11:00:05;8.32;;;2.58;;
22270;SDS011;11304;53.520;10.104;2023-03-22T11:02:42;13.80;;;2.63;;
22270;SDS011;11304;53.520;10.104;2023-03-22T11:05:16;7.95;;;2.40;;
22270;SDS011;11304;53.520;10.104;2023-03-22T11:07:43;6.32;;;2.15;;
22270;SDS011;11304;53.520;10.104;2023-03-22T11:18:13;7.25;;;2.25;;
22270;SDS011;11304;53.520;10.104;2023-03-22T11:20:40;6.90;;;2.42;;
22270;SDS011;11304;53.520;10.104;2023-03-22T11:23:10;6.63;;;2.50;;
22270;SDS011;11304;53.520;10.104;2023-03-22T11:25:37;8.43;;;2.22;;
22270;SDS011;11304;53.520;10.104;2023-03-22T11:30:41;7.57;;;2.42;;
22270;SDS011;11304;53.520;10.104;2023-03-22T11:33:22;7.65;;;2.80;;
22270;SDS011;11304;53.520;10.104;2023-03-22T11:35:54;6.95;;;2.20;;
22270;SDS011;11304;53.520;10.104;2023-03-22T11:38:27;5.88;;;2.42;;
22270;SDS011;11304;53.520;10.104;2023-03-22T11:41:04;6.93;;;2.25;;
22270;SDS011;11304;53.520;10.104;2023-03-22T11:43:35;6.03;;;2.30;;
22270;SDS011;11304;53.520;10.104;2023-03-22T11:46:02;6.88;;;2.15;;
22270;SDS011;11304;53.520;10.104;2023-03-22T11:48:29;5.70;;;2.53;;
22270;SDS011;11304;53.520;10.104;2023-03-22T11:51:07;7.65;;;2.85;;
22270;SDS011;11304;53.520;10.104;2023-03-22T11:53:34;7.75;;;2.60;;
22270;SDS011;11304;53.520;10.104;2023-03-22T11:56:02;8.20;;;2.50;;
22270;SDS011;11304;53.520;10.104;2023-03-22T12:01:07;10.32;;;2.97;;
22270;SDS011;11304;53.520;10.104;2023-03-22T12:03:37;9.57;;;2.88;;
22270;SDS011;11304;53.520;10.104;2023-03-22T12:06:04;7.25;;;2.72;;
22270;SDS011;11304;53.520;10.104;2023-03-22T12:08:42;5.82;;;2.80;;
22270;SDS011;11304;53.520;10.104;2023-03-22T12:11:43;8.35;;;2.92;;
22270;SDS011;11304;53.520;10.104;2023-03-22T12:14:04;8.63;;;3.08;;
22270;SDS011;11304;53.520;10.104;2023-03-22T12:16:34;8.27;;;3.22;;
22270;SDS011;11304;53.520;10.104;2023-03-22T12:21:45;7.45;;;3.13;;
22270;SDS011;11304;53.520;10.104;2023-03-22T12:24:34;9.63;;;3.08;;
22270;SDS011;11304;53.520;10.104;2023-03-22T12:27:02;7.15;;;2.90;;
22270;SDS011;11304;53.520;10.104;2023-03-22T12:29:29;9.95;;;3.28;;
22270;SDS011;11304;53.520;10.104;2023-03-22T12:31:58;8.88;;;2.90;;
22270;SDS011;11304;53.520;10.104;2023-03-22T12:34:31;6.78;;;2.95;;
22270;SDS011;11304;53.520;10.104;2023-03-22T12:36:59;8.07;;;2.90;;
22270;SDS011;11304;53.520;10.104;2023-03-22T12:42:03;7.95;;;3.30;;
22270;SDS011;11304;53.520;10.104;2023-03-22T12:44:32;7.90;;;3.13;;
22270;SDS011;11304;53.520;10.104;2023-03-22T12:47:06;10.10;;;3.60;;
22270;SDS011;11304;53.520;10.104;2023-03-22T12:54:36;8.02;;;3.67;;
22270;SDS011;11304;53.520;10.104;2023-03-22T12:57:02;7.05;;;3.53;;
22270;SDS011;11304;53.520;10.104;2023-03-22T12:59:29;6.82;;;3.58;;
22270;SDS011;11304;53.520;10.104;2023-03-22T13:02:04;7.70;;;3.72;;
22270;SDS011;11304;53.520;10.104;2023-03-22T13:07:08;6.88;;;4.28;;
22270;SDS011;11304;53.520;10.104;2023-03-22T13:20:31;8.95;;;5.65;;
22270;SDS011;11304;53.520;10.104;2023-03-22T13:27:36;8.30;;;5.55;;
22270;SDS011;11304;53.520;10.104;2023-03-22T13:30:04;10.18;;;5.47;;
22270;SDS011;11304;53.520;10.104;2023-03-22T13:32:34;9.80;;;5.60;;
22270;SDS011;11304;53.520;10.104;2023-03-22T13:35:01;10.77;;;6.30;;
22270;SDS011;11304;53.520;10.104;2023-03-22T13:37:28;8.50;;;6.03;;
22270;SDS011;11304;53.520;10.104;2023-03-22T13:39:59;14.43;;;6.22;;
22270;SDS011;11304;53.520;10.104;2023-03-22T13:42:37;10.55;;;6.10;;
22270;SDS011;11304;53.520;10.104;2023-03-22T13:45:06;9.43;;;6.22;;
22270;SDS011;11304;53.520;10.104;2023-03-22T13:50:09;11.07;;;6.80;;
22270;SDS011;11304;53.520;10.104;2023-03-22T13:52:58;8.70;;;6.90;;
22270;SDS011;11304;53.520;10.104;2023-03-22T13:58:08;9.55;;;6.05;;
22270;SDS011;11304;53.520;10.104;2023-03-22T14:00:35;9.82;;;6.55;;
22270;SDS011;11304;53.520;10.104;2023-03-22T14:03:10;10.65;;;7.30;;
22270;SDS011;11304;53.520;10.104;2023-03-22T14:05:38;10.15;;;6.93;;
22270;SDS011;11304;53.520;10.104;2023-03-22T14:08:04;11.70;;;7.15;;
22270;SDS011;11304;53.520;10.104;2023-03-22T14:10:51;9.95;;;7.05;;
22270;SDS011;11304;53.520;10.104;2023-03-22T14:15:45;9.85;;;6.97;;
22270;SDS011;11304;53.520;10.104;2023-03-22T14:18:23;11.77;;;7.05;;
22270;SDS011;11304;53.520;10.104;2023-03-22T14:21:12;8.68;;;6.78;;
22270;SDS011;11304;53.520;10.104;2023-03-22T14:23:38;9.65;;;6.60;;
22270;SDS011;11304;53.520;10.104;2023-03-22T14:26:18;9.90;;;6.25;;
22270;SDS011;11304;53.520;10.104;2023-03-22T14:28:46;8.77;;;5.82;;
22270;SDS011;11304;53.520;10.104;2023-03-22T14:31:22;8.60;;;5.32;;
22270;SDS011;11304;53.520;10.104;2023-03-22T14:33:50;10.98;;;6.05;;
22270;SDS011;11304;53.520;10.104;2023-03-22T14:36:18;9.30;;;5.70;;
22270;SDS011;11304;53.520;10.104;2023-03-22T14:38:45;10.10;;;5.85;;
22270;SDS011;11304;53.520;10.104;2023-03-22T14:41:13;11.02;;;6.18;;
22270;SDS011;11304;53.520;10.104;2023-03-22T14:43:40;10.18;;;5.85;;
22270;SDS011;11304;53.520;10.104;2023-03-22T14:46:20;12.70;;;5.82;;
22270;SDS011;11304;53.520;10.104;2023-03-22T14:48:47;8.30;;;5.28;;
22270;SDS011;11304;53.520;10.104;2023-03-22T14:51:15;8.60;;;5.65;;
22270;SDS011;11304;53.520;10.104;2023-03-22T14:53:43;8.68;;;5.25;;
22270;SDS011;11304;53.520;10.104;2023-03-22T14:56:20;9.60;;;5.40;;
22270;SDS011;11304;53.520;10.104;2023-03-22T14:58:48;8.43;;;5.15;;
22270;SDS011;11304;53.520;10.104;2023-03-22T15:01:17;10.93;;;4.32;;
22270;SDS011;11304;53.520;10.104;2023-03-22T15:03:47;9.63;;;4.43;;
22270;SDS011;11304;53.520;10.104;2023-03-22T15:06:14;9.88;;;4.68;;
22270;SDS011;11304;53.520;10.104;2023-03-22T15:08:43;7.22;;;4.60;;
22270;SDS011;11304;53.520;10.104;2023-03-22T15:13:36;9.90;;;3.75;;
22270;SDS011;11304;53.520;10.104;2023-03-22T15:16:03;8.27;;;4.13;;
22270;SDS011;11304;53.520;10.104;2023-03-22T15:18:30;9.15;;;4.18;;
22270;SDS011;11304;53.520;10.104;2023-03-22T15:20:58;9.45;;;3.70;;
22270;SDS011;11304;53.520;10.104;2023-03-22T15:25:54;11.18;;;3.65;;
22270;SDS011;11304;53.520;10.104;2023-03-22T15:28:28;8.00;;;3.45;;
22270;SDS011;11304;53.520;10.104;2023-03-22T15:30:56;8.00;;;3.42;;
22270;SDS011;11304;53.520;10.104;2023-03-22T15:33:36;7.38;;;3.88;;
22270;SDS011;11304;53.520;10.104;2023-03-22T15:36:03;8.68;;;3.38;;
22270;SDS011;11304;53.520;10.104;2023-03-22T15:38:31;11.43;;;3.67;;
22270;SDS011;11304;53.520;10.104;2023-03-22T15:41:01;9.55;;;2.97;;
22270;SDS011;11304;53.520;10.104;2023-03-22T15:51:12;9.18;;;3.30;;
22270;SDS011;11304;53.520;10.104;2023-03-22T15:53:38;9.98;;;3.45;;
22270;SDS011;11304;53.520;10.104;2023-03-22T15:56:04;8.25;;;3.10;;
22270;SDS011;11304;53.520;10.104;2023-03-22T15:58:34;8.98;;;3.58;;
22270;SDS011;11304;53.520;10.104;2023-03-22T16:01:13;9.27;;;3.60;;
22270;SDS011;11304;53.520;10.104;2023-03-22T16:03:43;5.53;;;2.88;;
22270;SDS011;11304;53.520;10.104;2023-03-22T16:06:11;10.20;;;3.47;;
22270;SDS011;11304;53.520;10.104;2023-03-22T16:08:37;9.40;;;3.45;;
22270;SDS011;11304;53.520;10.104;2023-03-22T16:11:04;10.27;;;3.60;;
22270;SDS011;11304;53.520;10.104;2023-03-22T16:13:30;8.32;;;3.88;;
22270;SDS011;11304;53.520;10.104;2023-03-22T16:15:58;9.35;;;3.53;;
22270;SDS011;11304;53.520;10.104;2023-03-22T16:18:25;6.88;;;3.55;;
22270;SDS011;11304;53.520;10.104;2023-03-22T16:20:51;12.55;;;3.90;;
22270;SDS011;11304;53.520;10.104;2023-03-22T16:23:21;8.13;;;4.28;;
22270;SDS011;11304;53.520;10.104;2023-03-22T16:25:48;9.57;;;4.07;;
22270;SDS011;11304;53.520;10.104;2023-03-22T16:30:41;8.43;;;4.22;;
22270;SDS011;11304;53.520;10.104;2023-03-22T16:33:11;7.88;;;4.13;;
22270;SDS011;11304;53.520;10.104;2023-03-22T16:35:38;9.70;;;4.15;;
22270;SDS011;11304;53.520;10.104;2023-03-22T16:38:04;9.63;;;4.60;;
22270;SDS011;11304;53.520;10.104;2023-03-22T16:40:30;10.10;;;4.43;;